createdAt,value
2019-06-27T00:00:00.814Z,47.6
2019-06-27T00:05:02.040Z,47.1
2019-06-27T00:10:01.084Z,47.1
2019-06-27T00:15:02.217Z,46.5
2019-06-27T00:20:01.163Z,47.1
2019-06-27T00:25:02.441Z,44.9
2019-06-27T00:30:01.248Z,45.5
2019-06-27T00:35:00.655Z,46
2019-06-27T00:40:01.695Z,44.9
2019-06-27T00:45:00.816Z,44.9
2019-06-27T00:50:01.801Z,45.5
2019-06-27T00:55:01.190Z,45.5
2019-06-27T01:00:02.576Z,44.4
2019-06-27T01:05:01.061Z,46.5
2019-06-27T01:10:02.032Z,46.5
2019-06-27T01:15:00.719Z,46
2019-06-27T01:20:01.938Z,45.5
2019-06-27T01:25:00.815Z,46.5
2019-06-27T01:30:01.949Z,46.5
2019-06-27T01:35:04.014Z,45.5
2019-06-27T01:40:01.779Z,46.5
2019-06-27T01:45:00.737Z,45.5
2019-06-27T01:50:02.042Z,44.9
2019-06-27T01:55:00.923Z,44.4
2019-06-27T02:00:02.376Z,45.5
2019-06-27T02:05:01.150Z,43.9
2019-06-27T02:10:02.358Z,44.9
2019-06-27T02:15:00.891Z,45.5
2019-06-27T02:20:01.870Z,45.5
2019-06-27T02:25:00.844Z,44.4
2019-06-27T02:30:02.003Z,45.5
2019-06-27T02:35:00.854Z,44.9
2019-06-27T02:40:01.681Z,45.5
2019-06-27T02:45:00.867Z,45.5
2019-06-27T02:50:01.899Z,44.9
2019-06-27T02:55:00.841Z,44.4
2019-06-27T03:00:02.055Z,44.9
2019-06-27T03:05:01.033Z,45.5
2019-06-27T03:10:01.599Z,45.5
2019-06-27T03:15:00.802Z,46.5
2019-06-27T03:20:01.696Z,44.4
2019-06-27T03:25:00.797Z,44.4
2019-06-27T03:30:01.893Z,44.9
2019-06-27T03:35:00.793Z,43.3
2019-06-27T03:40:01.936Z,44.4
2019-06-27T03:45:00.836Z,43.3
2019-06-27T03:50:01.862Z,44.9
2019-06-27T03:55:00.940Z,44.4
2019-06-27T04:00:02.367Z,44.9
2019-06-27T04:05:01.124Z,43.3
2019-06-27T04:10:02.034Z,44.4
2019-06-27T04:15:01.004Z,44.4
2019-06-27T04:20:02.367Z,43.3
2019-06-27T04:25:01.150Z,43.9
2019-06-27T04:30:02.394Z,42.8
2019-06-27T04:35:01.194Z,43.3
2019-06-27T04:40:02.619Z,44.4
2019-06-27T04:45:01.200Z,43.3
2019-06-27T04:50:02.460Z,40.6
2019-06-27T04:55:03.237Z,43.3
2019-06-27T05:00:02.322Z,43.3
2019-06-27T05:05:01.344Z,43.3
2019-06-27T05:10:00.595Z,42.2
2019-06-27T05:15:01.634Z,42.2
2019-06-27T05:20:03.185Z,43.3
2019-06-27T05:25:02.005Z,43.3
2019-06-27T05:30:09.033Z,43.9
2019-06-27T05:35:01.979Z,43.3
2019-06-27T05:40:00.956Z,43.3
2019-06-27T05:45:02.151Z,44.4
2019-06-27T05:50:01.001Z,42.2
2019-06-27T05:55:02.383Z,43.3
2019-06-27T06:00:00.846Z,43.3
2019-06-27T06:05:01.935Z,43.3
2019-06-27T06:10:01.145Z,43.3
2019-06-27T06:15:02.159Z,43.3
2019-06-27T06:20:01.063Z,44.4
2019-06-27T06:25:02.468Z,42.2
2019-06-27T06:30:01.502Z,43.3
2019-06-27T06:35:00.719Z,43.3
2019-06-27T06:40:01.578Z,43.3
2019-06-27T06:45:00.754Z,43.3
2019-06-27T06:50:01.914Z,43.3
2019-06-27T06:55:01.039Z,42.8
2019-06-27T07:00:01.951Z,43.3
2019-06-27T07:05:01.055Z,42.2
2019-06-27T07:10:02.316Z,43.3
2019-06-27T07:15:01.036Z,42.2
2019-06-27T07:20:02.294Z,43.3
2019-06-27T07:25:00.996Z,43.3
2019-06-27T07:30:02.295Z,44.4
2019-06-27T07:35:01.159Z,43.3
2019-06-27T07:40:02.603Z,42.2
2019-06-27T07:45:01.262Z,44.4
2019-06-27T07:50:02.523Z,42.8
2019-06-27T07:55:01.265Z,44.4
2019-06-27T08:00:02.606Z,42.2
2019-06-27T08:05:01.020Z,43.9
2019-06-27T08:10:02.037Z,43.3
2019-06-27T08:15:00.905Z,42.8
2019-06-27T08:20:01.946Z,44.4
2019-06-27T08:25:00.905Z,43.9
2019-06-27T08:30:02.011Z,44.4
2019-06-27T08:35:00.809Z,44.4
2019-06-27T08:40:01.869Z,44.9
2019-06-27T08:45:00.794Z,43.9
2019-06-27T08:50:01.763Z,45.5
2019-06-27T08:55:00.714Z,44.9
2019-06-27T09:00:01.867Z,45.5
2019-06-27T09:05:00.804Z,45.5
2019-06-27T09:10:01.866Z,46
2019-06-27T09:15:00.910Z,45.5
2019-06-27T09:20:01.964Z,45.5
2019-06-27T09:25:00.906Z,46.5
2019-06-27T09:30:02.007Z,46.5
2019-06-27T09:35:00.789Z,46.5
2019-06-27T09:40:01.568Z,47.1
2019-06-27T09:45:00.863Z,46.5
2019-06-27T09:50:01.659Z,46.5
2019-06-27T09:55:00.741Z,47.1
2019-06-27T10:00:01.857Z,46.5
2019-06-27T10:05:00.734Z,47.1
2019-06-27T10:10:01.905Z,48.2
2019-06-27T10:15:00.940Z,47.1
2019-06-27T10:20:01.901Z,46.5
2019-06-27T10:25:01.057Z,46.5
2019-06-27T10:30:02.465Z,47.1
2019-06-27T10:35:01.087Z,46.5
2019-06-27T10:40:02.071Z,47.1
2019-06-27T10:45:01.003Z,47.1
2019-06-27T10:50:02.307Z,46.5
2019-06-27T10:55:01.239Z,47.1
2019-06-27T11:00:02.462Z,46.5
2019-06-27T11:05:01.198Z,46.5
2019-06-27T11:10:00.568Z,47.6
2019-06-27T11:15:01.588Z,46.5
2019-06-27T11:20:00.641Z,48.2
2019-06-27T11:25:02.023Z,47.6
2019-06-27T11:30:00.685Z,47.1
2019-06-27T11:35:01.900Z,48.2
2019-06-27T11:40:00.915Z,48.7
2019-06-27T11:45:02.315Z,48.2
2019-06-27T11:50:01.018Z,49.2
2019-06-27T11:55:02.259Z,48.7
2019-06-27T12:00:01.022Z,49.2
2019-06-27T12:05:02.103Z,48.7
2019-06-27T12:10:00.975Z,50.3
2019-06-27T12:15:01.973Z,49.8
2019-06-27T12:20:00.880Z,49.8
2019-06-27T12:25:01.926Z,49.8
2019-06-27T12:30:00.798Z,48.7
2019-06-27T12:35:02.090Z,48.7
2019-06-27T12:40:01.087Z,49.8
2019-06-27T12:45:02.329Z,49.8
2019-06-27T12:50:02.910Z,50.3
2019-06-27T12:55:02.280Z,50.3
2019-06-27T13:00:01.024Z,50.8
2019-06-27T13:05:02.073Z,51.9
2019-06-27T13:10:00.743Z,50.8
2019-06-27T13:15:01.763Z,50.8
2019-06-27T13:20:00.958Z,49.8
2019-06-27T13:25:01.930Z,51.4
2019-06-27T13:30:00.924Z,51.4
2019-06-27T13:35:02.211Z,50.3
2019-06-27T13:40:04.370Z,51.9
2019-06-27T13:45:02.335Z,53
2019-06-27T13:50:01.028Z,54.1
2019-06-27T13:55:02.192Z,53
2019-06-27T14:00:01.506Z,54.1
2019-06-27T14:05:02.047Z,55.7
2019-06-27T14:10:01.145Z,55.7
2019-06-27T14:15:02.301Z,54.1
2019-06-27T14:20:01.006Z,55.7
2019-06-27T14:25:02.046Z,55.7
2019-06-27T14:30:00.866Z,57.3
2019-06-27T14:35:14.406Z,56.8
2019-06-27T14:40:00.957Z,55.7
2019-06-27T14:45:02.096Z,55.1
2019-06-27T14:50:01.081Z,56.2
2019-06-27T14:55:02.473Z,55.1
2019-06-27T15:00:01.512Z,55.7
2019-06-27T15:05:00.614Z,56.8
2019-06-27T15:10:01.911Z,55.1
2019-06-27T15:15:00.961Z,54.6
2019-06-27T15:20:02.021Z,54.6
2019-06-27T15:25:00.993Z,55.7
2019-06-27T15:30:02.983Z,54.1
2019-06-27T15:35:01.328Z,54.1
2019-06-27T15:40:00.744Z,53
2019-06-27T15:45:02.003Z,54.6
2019-06-27T15:50:01.017Z,52.5
2019-06-27T15:55:02.051Z,54.1
2019-06-27T16:00:00.822Z,53
2019-06-27T16:05:02.149Z,52.5
2019-06-27T16:10:01.217Z,53.5
2019-06-27T16:15:02.133Z,53.5
2019-06-27T16:20:01.034Z,53
2019-06-27T16:25:02.548Z,51.4
2019-06-27T16:30:01.030Z,53
2019-06-27T16:35:02.199Z,53
2019-06-27T16:40:01.099Z,53
2019-06-27T16:45:02.110Z,53
2019-06-27T16:50:01.061Z,53
2019-06-27T16:55:02.483Z,50.3
2019-06-27T17:00:01.158Z,53
2019-06-27T17:05:02.541Z,50.8
2019-06-27T17:10:01.038Z,51.9
2019-06-27T17:15:02.070Z,51.9
2019-06-27T17:20:00.996Z,51.9
2019-06-27T17:25:02.242Z,53
2019-06-27T17:30:00.978Z,50.8
2019-06-27T17:35:02.082Z,50.8
2019-06-27T17:40:01.115Z,51.4
2019-06-27T17:45:01.759Z,51.4
2019-06-27T17:50:00.999Z,49.8
2019-06-27T17:55:02.226Z,50.8
2019-06-27T18:00:00.984Z,51.4
2019-06-27T18:05:01.328Z,49.8
2019-06-27T18:10:00.629Z,50.8
2019-06-27T18:15:01.522Z,50.3
2019-06-27T18:20:00.608Z,48.7
2019-06-27T18:25:01.896Z,48.7
2019-06-27T18:30:00.915Z,49.8
2019-06-27T18:35:02.029Z,48.7
2019-06-27T18:40:01.038Z,49.8
2019-06-27T18:45:02.347Z,49.2
2019-06-27T18:50:01.177Z,48.7
2019-06-27T18:55:02.079Z,48.7
2019-06-27T19:00:00.917Z,48.7
2019-06-27T19:05:05.057Z,48.7
2019-06-27T19:10:01.102Z,48.7
2019-06-27T19:15:02.133Z,48.7
2019-06-27T19:20:01.165Z,48.2
2019-06-27T19:25:02.201Z,47.6
2019-06-27T19:30:01.184Z,48.2
2019-06-27T19:35:02.179Z,47.6
2019-06-27T19:40:01.102Z,47.6
2019-06-27T19:45:02.259Z,48.2
2019-06-27T19:50:01.063Z,46.5
2019-06-27T19:55:02.178Z,46.5
2019-06-27T20:00:00.963Z,47.1
2019-06-27T20:05:01.921Z,47.6
2019-06-27T20:10:01.019Z,46.5
2019-06-27T20:15:02.068Z,47.1
2019-06-27T20:20:00.997Z,46.5
2019-06-27T20:25:01.691Z,46.5
2019-06-27T20:30:00.998Z,46
2019-06-27T20:35:02.043Z,46
2019-06-27T20:40:01.044Z,44.9
2019-06-27T20:45:02.131Z,45.5
2019-06-27T20:50:00.725Z,46
2019-06-27T20:55:01.645Z,45.5
2019-06-27T21:00:00.598Z,45.5
2019-06-27T21:05:01.553Z,45.5
2019-06-27T21:10:00.748Z,45.5
2019-06-27T21:15:01.528Z,44.4
2019-06-27T21:20:00.842Z,44.9
2019-06-27T21:25:01.634Z,44.9
2019-06-27T21:30:00.759Z,44.9
2019-06-27T21:35:01.304Z,44.4
2019-06-27T21:40:00.560Z,45.5
2019-06-27T21:45:01.885Z,44.9
2019-06-27T21:50:01.098Z,44.9
2019-06-27T21:55:02.458Z,43.9
2019-06-27T22:00:01.249Z,44.4
2019-06-27T22:05:02.598Z,43.3
2019-06-27T22:10:01.312Z,46
2019-06-27T22:15:02.583Z,43.3
2019-06-27T22:20:14.319Z,45.5
2019-06-27T22:25:02.012Z,44.9
2019-06-27T22:30:00.865Z,44.9
2019-06-27T22:35:01.956Z,45.5
2019-06-27T22:40:00.852Z,44.9
2019-06-27T22:45:01.943Z,45.5
2019-06-27T22:50:00.770Z,44.9
2019-06-27T22:55:01.750Z,44.4
2019-06-27T23:00:00.885Z,44.4
2019-06-27T23:05:01.911Z,44.9
2019-06-27T23:10:00.748Z,45.5
2019-06-27T23:15:01.867Z,45.5
2019-06-27T23:20:00.741Z,46.5
2019-06-27T23:25:01.996Z,46
2019-06-27T23:30:00.891Z,46.5
2019-06-27T23:35:02.148Z,46
2019-06-27T23:40:13.207Z,45.5
2019-06-27T23:45:02.089Z,45.5
2019-06-27T23:50:01.082Z,45.5
2019-06-27T23:55:02.123Z,46.5
